createdAt,value
2022-08-17T00:01:55.493Z,7.50
2022-08-17T00:03:58.379Z,7.15
2022-08-17T00:06:03.676Z,6.93
2022-08-17T00:08:09.376Z,7.60
2022-08-17T00:10:12.370Z,8.13
2022-08-17T00:12:51.263Z,7.57
2022-08-17T00:14:38.905Z,7.32
2022-08-17T00:16:55.480Z,7.45
2022-08-17T00:19:08.480Z,7.50
2022-08-17T00:21:12.452Z,7.45
2022-08-17T00:23:19.518Z,7.47
2022-08-17T00:25:22.474Z,7.43
2022-08-17T00:27:25.585Z,7.38
2022-08-17T00:29:28.540Z,7.30
2022-08-17T00:31:31.500Z,7.43
2022-08-17T00:33:34.893Z,8.05
2022-08-17T00:35:39.178Z,7.45
2022-08-17T00:37:42.582Z,7.45
2022-08-17T00:39:48.204Z,7.38
2022-08-17T00:41:51.211Z,7.55
2022-08-17T00:43:56.786Z,7.57
2022-08-17T00:46:01.851Z,7.80
2022-08-17T00:48:05.017Z,7.63
2022-08-17T00:50:16.941Z,7.32
2022-08-17T00:52:24.421Z,7.47
2022-08-17T00:54:31.342Z,7.50
2022-08-17T00:56:42.608Z,8.43
2022-08-17T00:58:45.778Z,8.00
2022-08-17T01:00:49.751Z,8.15
2022-08-17T01:02:56.076Z,7.88
2022-08-17T01:04:59.106Z,8.13
2022-08-17T01:07:03.777Z,7.50
2022-08-17T01:09:06.890Z,8.38
2022-08-17T01:11:09.867Z,7.90
2022-08-17T01:13:15.777Z,8.07
2022-08-17T01:15:18.802Z,7.78
2022-08-17T01:17:21.823Z,7.90
2022-08-17T01:19:26.779Z,8.35
2022-08-17T01:21:35.803Z,8.48
2022-08-17T01:23:41.532Z,7.70
2022-08-17T01:25:45.497Z,8.70
2022-08-17T01:27:52.280Z,7.65
2022-08-17T01:30:00.272Z,7.90
2022-08-17T01:32:06.358Z,8.65
2022-08-17T01:34:11.753Z,8.88
2022-08-17T01:36:15.351Z,8.95
2022-08-17T01:38:18.561Z,9.02
2022-08-17T01:40:36.402Z,8.82
2022-08-17T01:42:42.982Z,7.90
2022-08-17T01:44:45.607Z,8.75
2022-08-17T01:46:48.360Z,8.48
2022-08-17T01:48:51.011Z,8.25
2022-08-17T01:50:54.022Z,8.13
2022-08-17T01:52:59.994Z,9.05
2022-08-17T01:55:04.797Z,8.93
2022-08-17T01:57:10.660Z,8.82
2022-08-17T01:59:14.769Z,9.18
2022-08-17T02:01:21.031Z,8.65
2022-08-17T02:03:25.057Z,8.32
2022-08-17T02:05:28.023Z,9.20
2022-08-17T02:07:31.128Z,8.73
2022-08-17T02:09:34.533Z,8.32
2022-08-17T02:11:38.181Z,8.27
2022-08-17T02:13:43.970Z,8.48
2022-08-17T02:15:47.364Z,8.48
2022-08-17T02:17:54.701Z,9.27
2022-08-17T02:19:58.110Z,8.73
2022-08-17T02:22:01.107Z,9.82
2022-08-17T02:24:06.806Z,8.95
2022-08-17T02:26:10.109Z,9.35
2022-08-17T02:28:28.604Z,10.05
2022-08-17T02:31:01.228Z,9.25
2022-08-17T02:32:57.732Z,9.27
2022-08-17T02:35:01.123Z,9.38
2022-08-17T02:37:04.265Z,9.20
2022-08-17T02:39:10.331Z,9.10
2022-08-17T02:41:13.417Z,9.02
2022-08-17T02:43:16.802Z,9.13
2022-08-17T02:45:22.412Z,9.65
2022-08-17T02:47:28.548Z,9.27
2022-08-17T02:49:31.579Z,8.60
2022-08-17T02:51:34.961Z,8.95
2022-08-17T02:53:38.081Z,9.02
2022-08-17T02:55:42.503Z,9.18
2022-08-17T02:57:45.493Z,9.52
2022-08-17T02:59:49.227Z,9.60
2022-08-17T03:01:52.376Z,9.65
2022-08-17T03:03:58.109Z,8.82
2022-08-17T03:06:01.536Z,9.43
2022-08-17T03:08:06.184Z,9.65
2022-08-17T03:10:10.721Z,10.13
2022-08-17T03:12:15.517Z,9.90
2022-08-17T03:14:18.957Z,10.00
2022-08-17T03:16:29.506Z,9.60
2022-08-17T03:18:32.569Z,9.60
2022-08-17T03:20:38.305Z,9.48
2022-08-17T03:22:47.830Z,8.93
2022-08-17T03:24:56.913Z,8.85
2022-08-17T03:26:59.881Z,8.30
2022-08-17T03:29:03.198Z,8.10
2022-08-17T03:31:07.422Z,8.57
2022-08-17T03:33:12.569Z,8.63
2022-08-17T03:35:18.920Z,8.93
2022-08-17T03:37:24.532Z,7.93
2022-08-17T03:39:27.570Z,7.85
2022-08-17T03:41:30.733Z,8.18
2022-08-17T03:43:33.976Z,8.65
2022-08-17T03:45:37.437Z,9.23
2022-08-17T03:47:41.655Z,9.43
2022-08-17T03:49:49.229Z,9.07
2022-08-17T03:51:52.657Z,9.70
2022-08-17T03:53:59.382Z,9.95
2022-08-17T03:56:04.010Z,9.23
2022-08-17T03:58:06.971Z,8.73
2022-08-17T04:00:11.247Z,8.77
2022-08-17T04:02:18.326Z,8.30
2022-08-17T04:04:27.769Z,8.90
2022-08-17T04:08:35.309Z,9.13
2022-08-17T04:10:45.011Z,9.15
2022-08-17T04:12:50.421Z,8.88
2022-08-17T04:14:54.880Z,8.98
2022-08-17T04:16:58.317Z,8.88
2022-08-17T04:19:01.621Z,9.23
2022-08-17T04:21:04.925Z,8.75
2022-08-17T04:23:10.351Z,9.23
2022-08-17T04:25:16.926Z,9.43
2022-08-17T04:27:22.557Z,9.10
2022-08-17T04:29:26.044Z,9.50
2022-08-17T04:31:47.726Z,9.90
2022-08-17T04:33:50.835Z,9.40
2022-08-17T04:35:57.160Z,9.25
2022-08-17T04:38:00.180Z,9.10
2022-08-17T04:40:04.566Z,9.45
2022-08-17T04:42:08.671Z,9.88
2022-08-17T04:44:14.437Z,8.93
2022-08-17T04:46:38.026Z,9.52
2022-08-17T04:48:43.878Z,9.95
2022-08-17T04:50:51.145Z,10.48
2022-08-17T04:52:54.227Z,9.77
2022-08-17T04:54:57.290Z,9.70
2022-08-17T04:57:00.273Z,9.75
2022-08-17T04:59:08.739Z,9.93
2022-08-17T05:01:23.624Z,9.27
2022-08-17T05:03:27.585Z,9.77
2022-08-17T05:05:33.986Z,9.75
2022-08-17T05:07:37.027Z,9.25
2022-08-17T05:09:40.009Z,9.95
2022-08-17T05:11:45.061Z,9.02
2022-08-17T05:13:49.144Z,9.23
2022-08-17T05:15:56.722Z,9.23
2022-08-17T05:18:02.759Z,9.55
2022-08-17T05:20:06.721Z,9.93
2022-08-17T05:22:09.719Z,10.43
2022-08-17T05:24:38.343Z,10.20
2022-08-17T05:26:36.517Z,8.77
2022-08-17T05:28:40.715Z,9.27
2022-08-17T05:30:49.372Z,9.43
2022-08-17T05:32:54.537Z,9.30
2022-08-17T05:35:00.530Z,9.15
2022-08-17T05:37:03.791Z,9.13
2022-08-17T05:39:06.832Z,8.32
2022-08-17T05:41:10.900Z,9.02
2022-08-17T05:43:17.395Z,8.88
2022-08-17T05:45:32.060Z,8.88
2022-08-17T05:47:46.187Z,8.65
2022-08-17T05:49:49.383Z,8.35
2022-08-17T05:52:19.836Z,7.97
2022-08-17T05:54:34.391Z,7.57
2022-08-17T05:56:59.927Z,8.23
2022-08-17T05:59:09.206Z,8.38
2022-08-17T06:01:25.826Z,7.55
2022-08-17T06:03:48.054Z,7.78
2022-08-17T06:06:10.912Z,6.97
2022-08-17T06:08:23.293Z,6.85
2022-08-17T06:10:32.230Z,7.60
2022-08-17T06:12:43.308Z,6.67
2022-08-17T06:14:57.299Z,6.47
2022-08-17T06:17:04.367Z,6.90
2022-08-17T06:19:15.480Z,7.00
2022-08-17T06:21:20.589Z,6.57
2022-08-17T06:23:37.376Z,6.60
2022-08-17T06:25:47.078Z,6.07
2022-08-17T06:27:54.082Z,6.05
2022-08-17T06:30:05.515Z,6.38
2022-08-17T06:32:12.195Z,5.82
2022-08-17T06:34:15.967Z,6.10
2022-08-17T06:36:38.213Z,5.70
2022-08-17T06:38:57.495Z,5.68
2022-08-17T06:41:11.367Z,5.25
2022-08-17T06:43:26.940Z,5.45
2022-08-17T06:45:34.583Z,5.72
2022-08-17T06:47:44.424Z,5.60
2022-08-17T06:52:06.950Z,5.38
2022-08-17T06:54:19.587Z,4.97
2022-08-17T06:56:54.319Z,5.43
2022-08-17T06:58:57.282Z,6.05
2022-08-17T07:01:05.834Z,5.25
2022-08-17T07:03:15.812Z,5.07
2022-08-17T07:05:21.545Z,5.45
2022-08-17T07:07:24.511Z,5.30
2022-08-17T07:09:35.542Z,5.40
2022-08-17T07:11:43.816Z,5.85
2022-08-17T07:13:55.185Z,5.93
2022-08-17T07:16:07.541Z,6.10
2022-08-17T07:18:11.090Z,5.60
2022-08-17T07:20:19.195Z,5.75
2022-08-17T07:22:29.940Z,6.13
2022-08-17T07:24:58.119Z,7.05
2022-08-17T07:27:10.006Z,7.28
2022-08-17T07:29:18.017Z,7.07
2022-08-17T07:33:28.343Z,6.22
2022-08-17T07:35:40.624Z,6.13
2022-08-17T07:37:47.277Z,5.60
2022-08-17T07:40:14.865Z,4.65
2022-08-17T07:42:15.860Z,5.03
2022-08-17T07:44:18.848Z,5.38
2022-08-17T07:46:23.798Z,5.78
2022-08-17T07:48:27.343Z,5.10
2022-08-17T07:50:30.707Z,4.90
2022-08-17T07:52:50.875Z,4.05
2022-08-17T07:54:55.075Z,4.35
2022-08-17T07:56:59.722Z,3.70
2022-08-17T07:59:15.182Z,3.92
2022-08-17T08:01:18.173Z,3.88
2022-08-17T08:03:26.212Z,4.47
2022-08-17T08:05:49.428Z,3.55
2022-08-17T08:07:56.823Z,3.70
2022-08-17T08:10:08.639Z,3.95
2022-08-17T08:12:25.684Z,3.58
2022-08-17T08:14:39.166Z,3.70
2022-08-17T08:16:57.240Z,3.40
2022-08-17T08:19:02.142Z,3.85
2022-08-17T08:21:07.903Z,3.50
2022-08-17T08:23:18.335Z,3.85
2022-08-17T08:25:30.959Z,3.40
2022-08-17T08:27:44.230Z,4.15
2022-08-17T08:29:55.354Z,3.75
2022-08-17T08:32:09.385Z,4.20
2022-08-17T08:34:47.994Z,3.42
2022-08-17T08:37:14.787Z,3.53
2022-08-17T08:39:30.171Z,3.78
2022-08-17T08:41:44.125Z,3.55
2022-08-17T08:43:58.565Z,4.13
2022-08-17T08:46:11.513Z,3.65
2022-08-17T08:48:56.362Z,3.67
2022-08-17T08:51:00.093Z,3.25
2022-08-17T08:53:25.641Z,3.50
2022-08-17T08:55:38.317Z,3.25
2022-08-17T08:57:48.616Z,3.17
2022-08-17T09:00:05.703Z,3.08
2022-08-17T09:02:24.000Z,3.38
2022-08-17T09:05:10.522Z,3.15
2022-08-17T09:07:11.563Z,3.03
2022-08-17T09:09:24.354Z,3.05
2022-08-17T09:12:02.183Z,2.90
2022-08-17T09:14:21.172Z,2.78
2022-08-17T09:16:29.355Z,2.80
2022-08-17T09:19:00.555Z,2.95
2022-08-17T09:21:07.612Z,2.95
2022-08-17T09:23:19.209Z,3.00
2022-08-17T09:25:25.813Z,3.03
2022-08-17T09:27:33.001Z,3.65
2022-08-17T09:29:42.700Z,3.30
2022-08-17T09:31:53.183Z,2.95
2022-08-17T09:34:02.021Z,2.92
2022-08-17T09:36:11.295Z,2.55
2022-08-17T09:40:27.084Z,2.80
2022-08-17T09:42:37.880Z,2.63
2022-08-17T09:44:47.072Z,2.58
2022-08-17T09:49:02.908Z,3.05
2022-08-17T09:51:10.923Z,2.70
2022-08-17T09:53:14.091Z,3.05
2022-08-17T09:55:17.183Z,2.63
2022-08-17T09:57:36.798Z,2.85
2022-08-17T09:59:50.311Z,2.75
2022-08-17T10:02:01.450Z,3.00
2022-08-17T10:04:42.437Z,3.00
2022-08-17T10:06:52.319Z,2.80
2022-08-17T10:09:01.790Z,2.92
2022-08-17T10:13:33.048Z,3.25
2022-08-17T10:15:48.913Z,3.17
2022-08-17T10:18:05.795Z,3.05
2022-08-17T10:20:17.673Z,3.25
2022-08-17T10:22:37.760Z,3.42
2022-08-17T10:25:21.618Z,3.22
2022-08-17T10:27:13.074Z,2.97
2022-08-17T10:29:20.678Z,3.15
2022-08-17T10:31:35.990Z,3.10
2022-08-17T10:33:49.272Z,3.53
2022-08-17T10:36:06.383Z,3.22
2022-08-17T10:38:35.820Z,3.55
2022-08-17T10:40:48.132Z,3.63
2022-08-17T10:42:58.505Z,3.33
2022-08-17T10:45:06.742Z,3.80
2022-08-17T10:47:12.148Z,2.92
2022-08-17T10:49:26.306Z,3.30
2022-08-17T10:51:41.275Z,3.60
2022-08-17T10:53:58.361Z,3.40
2022-08-17T10:56:44.812Z,3.55
2022-08-17T10:58:50.740Z,3.60
2022-08-17T11:00:58.461Z,3.78
2022-08-17T11:03:02.238Z,2.95
2022-08-17T11:05:29.430Z,3.30
2022-08-17T11:07:46.799Z,3.17
2022-08-17T11:10:17.334Z,3.25
2022-08-17T11:12:32.946Z,3.28
2022-08-17T11:14:54.870Z,3.42
2022-08-17T11:17:17.804Z,2.75
2022-08-17T11:19:41.443Z,3.15
2022-08-17T11:22:21.864Z,3.20
2022-08-17T11:24:35.467Z,3.20
2022-08-17T11:26:41.387Z,3.13
2022-08-17T11:28:47.985Z,3.20
2022-08-17T11:30:54.485Z,2.75
2022-08-17T11:32:57.579Z,2.92
2022-08-17T11:35:29.602Z,3.13
2022-08-17T11:37:46.700Z,2.83
2022-08-17T11:40:14.005Z,3.13
2022-08-17T11:42:30.109Z,2.88
2022-08-17T11:44:45.524Z,3.03
2022-08-17T11:47:08.907Z,2.80
2022-08-17T11:49:19.565Z,2.67
2022-08-17T11:51:24.587Z,2.55
2022-08-17T11:54:21.653Z,2.80
2022-08-17T11:56:51.817Z,2.70
2022-08-17T11:58:54.980Z,2.65
2022-08-17T12:01:00.220Z,2.88
2022-08-17T12:03:54.124Z,2.75
2022-08-17T12:06:04.167Z,2.35
2022-08-17T12:08:14.400Z,2.70
2022-08-17T12:10:21.884Z,2.40
2022-08-17T12:12:30.412Z,2.42
2022-08-17T12:15:08.186Z,2.65
2022-08-17T12:17:04.472Z,2.50
2022-08-17T12:21:27.530Z,2.80
2022-08-17T12:23:39.751Z,2.67
2022-08-17T12:25:47.604Z,2.60
2022-08-17T12:28:06.479Z,2.42
2022-08-17T12:30:14.387Z,2.50
2022-08-17T12:32:19.570Z,2.72
2022-08-17T12:34:25.578Z,2.50
2022-08-17T12:36:29.351Z,2.90
2022-08-17T12:38:34.130Z,2.63
2022-08-17T12:40:37.183Z,2.70
2022-08-17T12:42:40.264Z,2.60
2022-08-17T12:44:50.000Z,2.50
2022-08-17T12:46:59.531Z,2.50
2022-08-17T12:49:18.909Z,2.65
2022-08-17T12:51:21.879Z,2.92
2022-08-17T12:53:27.805Z,2.33
2022-08-17T12:55:36.618Z,2.53
2022-08-17T12:57:43.889Z,2.60
2022-08-17T12:59:53.214Z,2.33
2022-08-17T13:01:56.324Z,3.00
2022-08-17T13:04:00.446Z,2.63
2022-08-17T13:06:05.846Z,2.70
2022-08-17T13:08:15.696Z,2.60
2022-08-17T13:10:22.582Z,2.60
2022-08-17T13:12:31.155Z,2.70
2022-08-17T13:14:34.297Z,3.00
2022-08-17T13:16:39.990Z,3.00
2022-08-17T13:18:45.737Z,2.90
2022-08-17T13:20:51.854Z,2.47
2022-08-17T13:22:56.678Z,2.70
2022-08-17T13:25:02.733Z,2.58
2022-08-17T13:27:08.846Z,2.88
2022-08-17T13:29:21.256Z,2.75
2022-08-17T13:31:39.451Z,2.40
2022-08-17T13:34:16.677Z,2.83
2022-08-17T13:36:26.467Z,2.55
2022-08-17T13:38:39.436Z,2.83
2022-08-17T13:40:47.055Z,2.30
2022-08-17T13:42:53.820Z,2.60
2022-08-17T13:44:58.045Z,2.60
2022-08-17T13:47:01.987Z,2.50
2022-08-17T13:49:09.978Z,2.70
2022-08-17T13:51:27.952Z,2.28
2022-08-17T13:53:33.186Z,2.65
2022-08-17T13:55:36.397Z,2.50
2022-08-17T13:57:45.518Z,2.58
2022-08-17T14:01:59.047Z,2.45
2022-08-17T14:04:11.077Z,2.38
2022-08-17T14:06:14.812Z,2.60
2022-08-17T14:08:40.336Z,2.40
2022-08-17T14:10:43.394Z,2.70
2022-08-17T14:12:46.411Z,2.33
2022-08-17T14:14:49.364Z,2.50
2022-08-17T14:16:53.236Z,2.53
2022-08-17T14:18:57.463Z,2.65
2022-08-17T14:21:00.571Z,2.28
2022-08-17T14:23:03.546Z,2.38
2022-08-17T14:25:11.329Z,2.65
2022-08-17T14:27:14.388Z,2.92
2022-08-17T14:29:17.352Z,2.47
2022-08-17T14:31:20.455Z,2.92
2022-08-17T14:33:23.435Z,2.60
2022-08-17T14:35:26.565Z,2.75
2022-08-17T14:37:30.559Z,2.67
2022-08-17T14:39:33.615Z,3.00
2022-08-17T14:41:39.806Z,2.80
2022-08-17T14:43:42.809Z,2.38
2022-08-17T14:45:45.878Z,2.70
2022-08-17T14:47:48.930Z,2.78
2022-08-17T14:49:52.608Z,2.70
2022-08-17T14:51:56.760Z,2.75
2022-08-17T14:53:59.761Z,2.50
2022-08-17T14:56:02.973Z,2.30
2022-08-17T14:58:08.879Z,2.40
2022-08-17T15:00:13.627Z,2.65
2022-08-17T15:02:16.853Z,2.63
2022-08-17T15:04:19.845Z,2.70
2022-08-17T15:06:23.314Z,2.40
2022-08-17T15:08:26.325Z,2.63
2022-08-17T15:10:30.230Z,2.70
2022-08-17T15:12:34.459Z,2.33
2022-08-17T15:14:40.338Z,2.80
2022-08-17T15:16:43.341Z,2.50
2022-08-17T15:18:46.374Z,2.60
2022-08-17T15:20:50.235Z,2.67
2022-08-17T15:22:53.339Z,2.53
2022-08-17T15:24:56.413Z,2.67
2022-08-17T15:26:59.518Z,2.30
2022-08-17T15:29:02.545Z,2.38
2022-08-17T15:31:08.233Z,2.40
2022-08-17T15:33:14.225Z,2.75
2022-08-17T15:35:19.884Z,2.45
2022-08-17T15:37:30.877Z,2.80
2022-08-17T15:39:34.051Z,2.40
2022-08-17T15:41:37.004Z,2.60
2022-08-17T15:43:39.980Z,2.20
2022-08-17T15:45:43.485Z,2.70
2022-08-17T15:47:49.157Z,2.67
2022-08-17T15:49:56.666Z,2.58
2022-08-17T15:52:16.525Z,2.50
2022-08-17T15:54:22.865Z,2.67
2022-08-17T15:56:27.038Z,2.33
2022-08-17T15:58:33.596Z,2.58
2022-08-17T16:00:52.092Z,2.40
2022-08-17T16:03:45.812Z,2.70
2022-08-17T16:05:25.483Z,2.58
2022-08-17T16:07:28.821Z,2.30
2022-08-17T16:09:31.976Z,2.83
2022-08-17T16:11:34.984Z,2.78
2022-08-17T16:13:38.550Z,2.70
2022-08-17T16:15:41.733Z,2.30
2022-08-17T16:17:44.765Z,2.65
2022-08-17T16:19:51.584Z,2.65
2022-08-17T16:21:54.643Z,2.90
2022-08-17T16:24:00.375Z,2.80
2022-08-17T16:26:03.395Z,3.05
2022-08-17T16:28:06.546Z,2.92
2022-08-17T16:30:16.585Z,2.92
2022-08-17T16:32:31.992Z,2.95
2022-08-17T16:34:35.851Z,2.72
2022-08-17T16:36:41.612Z,2.70
2022-08-17T16:38:57.610Z,3.08
2022-08-17T16:41:00.697Z,3.00
2022-08-17T16:43:04.659Z,2.95
2022-08-17T16:45:11.658Z,2.92
2022-08-17T16:47:14.880Z,2.45
2022-08-17T16:49:24.503Z,2.80
2022-08-17T16:51:43.154Z,2.83
2022-08-17T16:53:46.143Z,2.92
2022-08-17T16:56:00.755Z,3.03
2022-08-17T16:58:04.495Z,2.42
2022-08-17T17:00:10.834Z,3.13
2022-08-17T17:02:15.410Z,2.75
2022-08-17T17:04:19.283Z,2.75
2022-08-17T17:06:31.113Z,2.92
2022-08-17T17:08:44.419Z,3.38
2022-08-17T17:10:49.635Z,3.03
2022-08-17T17:13:02.745Z,2.80
2022-08-17T17:15:08.534Z,3.45
2022-08-17T17:17:18.531Z,2.90
2022-08-17T17:19:34.523Z,2.95
2022-08-17T17:21:44.330Z,3.17
2022-08-17T17:23:54.713Z,3.55
2022-08-17T17:26:03.585Z,3.20
2022-08-17T17:28:15.106Z,3.10
2022-08-17T17:30:21.561Z,3.30
2022-08-17T17:32:33.879Z,3.28
2022-08-17T17:34:38.007Z,3.70
2022-08-17T17:36:44.136Z,3.47
2022-08-17T17:38:53.226Z,4.05
2022-08-17T17:41:02.254Z,3.63
2022-08-17T17:43:34.676Z,3.47
2022-08-17T17:45:40.820Z,3.13
2022-08-17T17:47:44.579Z,3.88
2022-08-17T17:49:47.891Z,3.75
2022-08-17T17:52:09.875Z,3.60
2022-08-17T17:54:30.013Z,3.88
2022-08-17T17:56:43.963Z,3.60
2022-08-17T17:59:01.520Z,4.47
2022-08-17T18:01:19.510Z,4.15
2022-08-17T18:03:36.964Z,4.40
2022-08-17T18:06:05.166Z,4.00
2022-08-17T18:08:19.386Z,4.10
2022-08-17T18:10:33.149Z,3.75
2022-08-17T18:12:43.478Z,3.83
2022-08-17T18:15:05.537Z,3.88
2022-08-17T18:17:08.605Z,4.28
2022-08-17T18:19:15.334Z,3.78
2022-08-17T18:21:21.022Z,3.90
2022-08-17T18:23:28.435Z,4.25
2022-08-17T18:25:43.928Z,3.90
2022-08-17T18:27:51.559Z,4.25
2022-08-17T18:29:56.906Z,3.83
2022-08-17T18:32:31.766Z,4.18
2022-08-17T18:34:47.323Z,4.22
2022-08-17T18:36:52.497Z,4.50
2022-08-17T18:39:11.133Z,4.32
2022-08-17T18:41:22.295Z,3.80
2022-08-17T18:43:27.861Z,4.15
2022-08-17T18:45:44.759Z,4.45
2022-08-17T18:47:53.826Z,4.20
2022-08-17T18:50:10.862Z,4.35
2022-08-17T18:52:15.940Z,4.30
2022-08-17T18:54:21.654Z,4.60
2022-08-17T18:56:32.665Z,4.55
2022-08-17T18:58:35.785Z,4.53
2022-08-17T19:00:40.994Z,4.78
2022-08-17T19:02:51.882Z,4.75
2022-08-17T19:05:04.796Z,4.80
2022-08-17T19:07:24.512Z,5.20
2022-08-17T19:11:36.635Z,5.00
2022-08-17T19:13:44.016Z,5.82
2022-08-17T19:16:11.394Z,4.95
2022-08-17T19:18:21.209Z,4.57
2022-08-17T19:20:30.382Z,5.38
2022-08-17T19:22:49.719Z,4.90
2022-08-17T19:25:02.710Z,5.10
2022-08-17T19:27:15.661Z,6.10
2022-08-17T19:29:26.456Z,5.65
2022-08-17T19:31:31.293Z,7.65
2022-08-17T19:33:34.775Z,8.77
2022-08-17T19:35:47.275Z,11.30
2022-08-17T19:38:02.731Z,10.52
2022-08-17T19:40:35.117Z,11.20
2022-08-17T19:42:49.953Z,13.05
2022-08-17T19:45:01.509Z,13.23
2022-08-17T19:47:17.230Z,11.43
2022-08-17T19:49:41.836Z,10.70
2022-08-17T19:51:49.614Z,9.10
2022-08-17T19:54:07.088Z,7.28
2022-08-17T19:56:18.255Z,6.65
2022-08-17T19:58:41.904Z,6.55
2022-08-17T20:00:51.717Z,6.75
2022-08-17T20:02:59.913Z,6.50
2022-08-17T20:05:08.562Z,7.22
2022-08-17T20:07:25.399Z,6.97
2022-08-17T20:09:34.642Z,7.70
2022-08-17T20:11:43.419Z,8.13
2022-08-17T20:13:55.838Z,8.32
2022-08-17T20:15:59.381Z,8.48
2022-08-17T20:18:07.598Z,8.65
2022-08-17T20:20:24.174Z,7.97
2022-08-17T20:22:30.843Z,7.25
2022-08-17T20:24:45.696Z,7.45
2022-08-17T20:26:58.361Z,7.90
2022-08-17T20:29:20.634Z,7.90
2022-08-17T20:31:43.994Z,8.25
2022-08-17T20:33:47.015Z,8.35
2022-08-17T20:36:11.975Z,8.68
2022-08-17T20:38:39.063Z,8.73
2022-08-17T20:41:10.561Z,8.45
2022-08-17T20:43:49.526Z,7.35
2022-08-17T20:46:15.582Z,8.55
2022-08-17T20:48:37.490Z,7.85
2022-08-17T20:50:45.482Z,8.15
2022-08-17T20:52:52.602Z,8.48
2022-08-17T20:54:57.066Z,8.40
2022-08-17T20:57:01.888Z,8.73
2022-08-17T20:59:09.455Z,8.60
2022-08-17T21:01:18.436Z,8.50
2022-08-17T21:03:52.348Z,8.80
2022-08-17T21:06:00.187Z,8.68
2022-08-17T21:08:15.059Z,8.80
2022-08-17T21:10:30.860Z,8.10
2022-08-17T21:12:43.098Z,9.07
2022-08-17T21:15:00.237Z,8.38
2022-08-17T21:17:21.011Z,8.43
2022-08-17T21:20:00.256Z,8.82
2022-08-17T21:22:16.646Z,8.75
2022-08-17T21:24:33.454Z,9.07
2022-08-17T21:26:50.276Z,9.18
2022-08-17T21:29:32.562Z,8.60
2022-08-17T21:31:35.172Z,8.52
2022-08-17T21:34:22.865Z,8.75
2022-08-17T21:36:26.915Z,8.20
2022-08-17T21:38:35.424Z,8.38
2022-08-17T21:40:43.446Z,8.27
2022-08-17T21:42:52.026Z,8.27
2022-08-17T21:44:59.373Z,9.02
2022-08-17T21:47:19.145Z,8.45
2022-08-17T21:49:28.471Z,8.85
2022-08-17T21:51:31.825Z,9.07
2022-08-17T21:53:40.117Z,8.93
2022-08-17T21:55:43.110Z,9.02
2022-08-17T21:57:52.799Z,8.98
2022-08-17T22:00:10.921Z,8.75
2022-08-17T22:02:19.497Z,9.18
2022-08-17T22:04:30.408Z,9.32
2022-08-17T22:06:40.288Z,9.18
2022-08-17T22:11:01.824Z,10.52
2022-08-17T22:13:16.735Z,9.18
2022-08-17T22:15:20.612Z,17.80
2022-08-17T22:17:25.681Z,9.63
2022-08-17T22:19:31.559Z,8.93
2022-08-17T22:21:34.624Z,8.80
2022-08-17T22:23:40.452Z,9.57
2022-08-17T22:25:59.074Z,8.85
2022-08-17T22:28:04.454Z,9.68
2022-08-17T22:30:17.070Z,9.73
2022-08-17T22:32:35.690Z,9.90
2022-08-17T22:34:41.302Z,10.05
2022-08-17T22:36:44.287Z,10.32
2022-08-17T22:38:47.550Z,9.98
2022-08-17T22:40:53.094Z,10.85
2022-08-17T22:42:57.198Z,10.85
2022-08-17T22:45:00.643Z,10.93
2022-08-17T22:47:06.909Z,10.38
2022-08-17T22:49:23.183Z,11.50
2022-08-17T22:51:30.684Z,12.05
2022-08-17T22:53:34.808Z,12.02
2022-08-17T22:55:37.861Z,12.77
2022-08-17T22:57:45.814Z,11.70
2022-08-17T22:59:51.291Z,12.18
2022-08-17T23:02:12.937Z,12.25
2022-08-17T23:04:32.161Z,12.65
2022-08-17T23:06:39.967Z,12.23
2022-08-17T23:08:43.180Z,12.07
2022-08-17T23:10:46.850Z,12.05
2022-08-17T23:12:50.219Z,11.88
2022-08-17T23:14:58.657Z,10.82
2022-08-17T23:17:02.094Z,11.52
2022-08-17T23:19:05.416Z,10.82
2022-08-17T23:21:08.553Z,11.70
2022-08-17T23:23:23.424Z,11.43
2022-08-17T23:25:29.265Z,11.55
2022-08-17T23:27:32.590Z,11.02
2022-08-17T23:29:36.063Z,11.50
2022-08-17T23:31:39.888Z,12.02
2022-08-17T23:33:43.263Z,11.88
2022-08-17T23:35:46.322Z,11.88
2022-08-17T23:37:49.305Z,12.82
2022-08-17T23:39:54.992Z,11.90
2022-08-17T23:41:58.939Z,12.32
2022-08-17T23:44:04.294Z,12.18
2022-08-17T23:46:07.348Z,13.18
2022-08-17T23:48:10.341Z,12.93
2022-08-17T23:50:14.026Z,12.68
2022-08-17T23:52:17.097Z,12.30
2022-08-17T23:54:23.295Z,13.00
2022-08-17T23:56:28.911Z,12.20
2022-08-17T23:58:31.941Z,12.50
